Aviation Digital Data Service (ADDS)

Output produced by TAFs form (1235 UTC 29 August 2015)
found at http://aviationweather.gov/adds/tafs/
 
KCNM 291120Z 2912/3012 02007KT P6SM SCT100 BKN250 
     FM291800 14007KT P6SM SCT100 BKN250